Time;durP1;ratioP1;P1;durP2;ratioP2;P2;SDS_P1;SDS_P2;PMS_P1;PMS_P2;Temp;Humidity;BMP_temperature;BMP_pressure;BME280_temperature;BME280_humidity;BME280_pressure;Samples;Min_cycle;Max_cycle;Signal;HPM_P1;HPM_P2
2023/05/23 00:01:21;;;;;;;69.47;27.90;;;16.80;99.90;;;;;;4968898;28;20185;-86
2023/05/23 00:03:48;;;;;;;54.43;24.90;;;;;;;;;;4972403;28;20175;-86
2023/05/23 00:06:14;;;;;;;67.03;28.17;;;;;;;;;;4970233;28;20872;-86
2023/05/23 00:08:39;;;;;;;64.97;27.63;;;16.70;99.90;;;;;;4968553;28;20497;-87
2023/05/23 00:11:05;;;;;;;65.20;26.67;;;;;;;;;;4986448;28;20509;-87
2023/05/23 00:13:33;;;;;;;68.87;27.20;;;16.70;99.90;;;;;;4976548;28;20190;-87
2023/05/23 00:15:59;;;;;;;60.53;28.20;;;16.70;99.90;;;;;;4973139;28;20466;-86
2023/05/23 00:18:25;;;;;;;66.87;27.40;;;;;;;;;;4983627;28;20441;-85
2023/05/23 00:20:51;;;;;;;63.87;29.57;;;;;;;;;;4964402;28;20790;-85
2023/05/23 00:23:20;;;;;;;78.20;31.37;;;16.60;99.90;;;;;;4970156;28;20443;-86
2023/05/23 00:25:51;;;;;;;69.93;28.30;;;16.60;99.90;;;;;;4973666;28;20824;-86
2023/05/23 00:28:17;;;;;;;76.50;31.93;;;;;;;;;;4986489;28;20445;-85
2023/05/23 00:30:43;;;;;;;79.37;31.37;;;16.60;99.90;;;;;;4986831;28;20426;-85
2023/05/23 00:33:08;;;;;;;67.67;31.90;;;16.50;99.90;;;;;;4989365;28;20478;-86
2023/05/23 00:35:34;;;;;;;72.77;29.23;;;16.50;99.90;;;;;;4968575;28;20198;-88
2023/05/23 00:38:01;;;;;;;92.97;33.57;;;;;;;;;;4985124;28;20302;-87
2023/05/23 00:40:26;;;;;;;77.40;29.27;;;16.50;99.90;;;;;;4982440;28;20430;-87
2023/05/23 00:42:53;;;;;;;73.07;32.67;;;;;;;;;;4979197;28;20950;-88
2023/05/23 00:45:18;;;;;;;84.37;33.20;;;16.40;99.90;;;;;;4972271;28;20527;-87
2023/05/23 00:47:47;;;;;;;65.77;30.57;;;16.40;99.90;;;;;;4990602;28;20434;-87
2023/05/23 00:50:14;;;;;;;72.80;30.40;;;16.40;99.90;;;;;;4976689;28;20214;-88
2023/05/23 00:52:41;;;;;;;77.13;32.00;;;16.40;99.90;;;;;;4976510;28;20528;-87
2023/05/23 00:55:10;;;;;;;73.93;31.00;;;16.40;99.90;;;;;;4987400;28;20537;-88
2023/05/23 00:57:39;;;;;;;87.97;32.10;;;16.40;99.90;;;;;;4966776;28;20939;-89
2023/05/23 01:00:09;;;;;;;74.23;31.50;;;16.30;99.90;;;;;;4974723;28;20441;-88
2023/05/23 01:02:44;;;;;;;96.00;32.53;;;16.30;99.90;;;;;;4967743;28;20542;-87
2023/05/23 01:05:13;;;;;;;92.97;34.73;;;16.30;99.90;;;;;;4972468;28;20523;-86
2023/05/23 01:07:40;;;;;;;92.70;35.67;;;16.30;99.90;;;;;;4986488;28;20933;-89
2023/05/23 01:10:06;;;;;;;87.70;37.50;;;16.30;99.90;;;;;;4985357;28;20492;-87
2023/05/23 01:12:45;;;;;;;86.10;32.50;;;16.20;99.90;;;;;;4966654;28;20966;-87
2023/05/23 01:15:20;;;;;;;90.87;35.63;;;16.20;99.90;;;;;;4984154;28;20499;-87
2023/05/23 01:17:58;;;;;;;83.53;35.77;;;16.20;99.90;;;;;;4970996;28;20841;-88
2023/05/23 01:20:30;;;;;;;73.20;33.50;;;16.20;99.90;;;;;;4971594;28;20450;-88
2023/05/23 01:22:59;;;;;;;93.23;34.23;;;;;;;;;;4979474;28;21029;-87
2023/05/23 01:25:46;;;;;;;85.30;37.07;;;16.20;99.90;;;;;;4981065;28;21240;-87
2023/05/23 01:28:17;;;;;;;73.27;35.13;;;16.30;99.90;;;;;;4972719;28;20848;-86
2023/05/23 01:30:45;;;;;;;94.87;38.30;;;16.30;99.90;;;;;;4974459;28;20957;-87
2023/05/23 01:33:14;;;;;;;93.40;38.30;;;16.30;99.90;;;;;;4972860;28;20426;-87
2023/05/23 01:35:42;;;;;;;83.60;33.40;;;17.70;99.90;;;;;;4972469;28;20454;-86
2023/05/23 01:38:08;;;;;;;95.37;37.40;;;;;;;;;;4976756;28;20437;-86
2023/05/23 01:40:34;;;;;;;88.37;40.43;;;;;;;;;;4991452;28;20438;-86
2023/05/23 01:43:01;;;;;;;87.43;35.83;;;;;;;;;;4990997;28;20835;-86
2023/05/23 01:45:27;;;;;;;97.77;39.63;;;;;;;;;;4977509;28;20459;-87
2023/05/23 01:47:54;;;;;;;104.97;41.30;;;;;;;;;;4993968;28;20434;-85
2023/05/23 01:50:19;;;;;;;85.27;37.63;;;16.50;99.90;;;;;;4979647;28;20816;-86
2023/05/23 01:52:46;;;;;;;91.93;37.53;;;16.50;99.90;;;;;;4974934;28;20450;-87
2023/05/23 01:55:14;;;;;;;104.30;39.93;;;16.50;99.90;;;;;;4992105;28;20210;-88
2023/05/23 01:57:40;;;;;;;105.23;41.17;;;16.50;99.90;;;;;;4976886;28;20450;-86
2023/05/23 02:00:07;;;;;;;101.00;39.40;;;16.50;99.90;;;;;;4975664;28;20430;-87
2023/05/23 02:02:33;;;;;;;81.87;37.40;;;16.50;99.90;;;;;;4978676;28;20497;-86
2023/05/23 02:04:59;;;;;;;97.93;38.47;;;;;;;;;;4992217;28;20463;-86
2023/05/23 02:07:25;;;;;;;94.07;38.60;;;;;;;;;;4975786;28;20449;-86
2023/05/23 02:09:51;;;;;;;85.23;37.13;;;;;;;;;;4994190;28;20463;-88
2023/05/23 02:12:17;;;;;;;92.13;36.20;;;;;;;;;;4977780;28;20773;-87
2023/05/23 02:14:43;;;;;;;94.30;41.30;;;;;;;;;;4979316;28;20470;-85
2023/05/23 02:17:09;;;;;;;100.77;38.40;;;;;;;;;;4987671;28;20430;-86
2023/05/23 02:19:38;;;;;;;87.40;39.27;;;16.40;99.90;;;;;;4981217;28;20489;-85
2023/05/23 02:22:03;;;;;;;98.17;37.10;;;16.40;99.90;;;;;;4981696;28;20529;-85
2023/05/23 02:24:29;;;;;;;114.10;41.87;;;16.40;99.90;;;;;;4992418;28;20611;-84
2023/05/23 02:26:55;;;;;;;77.07;37.00;;;16.40;99.90;;;;;;4970247;28;20183;-86
2023/05/23 02:29:21;;;;;;;82.03;37.00;;;;;;;;;;4972573;28;20236;-85
2023/05/23 02:31:46;;;;;;;93.73;37.33;;;16.40;99.90;;;;;;4987806;28;20439;-85
2023/05/23 02:34:12;;;;;;;87.97;38.47;;;;;;;;;;4972841;28;20473;-85
2023/05/23 02:36:39;;;;;;;97.07;39.37;;;;;;;;;;4978718;28;20188;-84
2023/05/23 02:39:05;;;;;;;92.60;40.07;;;;;;;;;;4989411;28;20439;-85
2023/05/23 02:41:31;;;;;;;73.03;34.50;;;16.40;99.90;;;;;;4978805;28;20449;-86
2023/05/23 02:43:57;;;;;;;74.67;34.43;;;16.40;99.90;;;;;;4971467;28;20961;-84
2023/05/23 02:46:23;;;;;;;74.53;35.30;;;16.40;99.90;;;;;;4968741;28;20194;-85
2023/05/23 02:48:48;;;;;;;83.27;37.97;;;17.40;99.90;;;;;;4968486;28;20467;-84
2023/05/23 02:51:14;;;;;;;99.87;38.97;;;16.40;99.90;;;;;;4987094;28;20179;-84
2023/05/23 02:53:40;;;;;;;82.33;35.57;;;16.40;99.90;;;;;;4987977;28;20239;-86
2023/05/23 02:56:07;;;;;;;77.13;35.87;;;16.40;99.90;;;;;;4986270;28;20191;-85
2023/05/23 02:58:34;;;;;;;97.00;35.70;;;16.30;99.90;;;;;;4984811;28;20180;-85
2023/05/23 03:01:01;;;;;;;73.10;33.13;;;16.30;99.90;;;;;;4987070;28;20477;-85
2023/05/23 03:03:27;;;;;;;77.80;32.57;;;16.30;99.90;;;;;;4985496;28;21023;-85
2023/05/23 03:05:53;;;;;;;82.20;35.43;;;;;;;;;;4969321;28;20454;-85
2023/05/23 03:08:19;;;;;;;84.97;35.77;;;;;;;;;;4984890;28;20457;-85
2023/05/23 03:10:45;;;;;;;77.37;37.20;;;;;;;;;;4984499;28;20426;-85
2023/05/23 03:13:11;;;;;;;79.50;35.97;;;16.20;99.90;;;;;;4964995;28;20427;-84
2023/05/23 03:15:36;;;;;;;72.57;35.37;;;16.20;99.90;;;;;;4982360;28;20470;-84
2023/05/23 03:18:02;;;;;;;72.90;34.27;;;16.30;99.90;;;;;;4980413;28;20193;-84
2023/05/23 03:20:27;;;;;;;72.37;34.60;;;16.20;99.90;;;;;;4964762;28;20182;-84
2023/05/23 03:22:53;;;;;;;72.57;36.23;;;16.20;99.90;;;;;;4980720;28;20261;-85
2023/05/23 03:25:18;;;;;;;68.80;34.27;;;16.10;99.90;;;;;;4969788;28;20210;-84
2023/05/23 03:27:44;;;;;;;75.80;35.80;;;16.10;99.90;;;;;;4979972;28;20249;-84
2023/05/23 03:30:10;;;;;;;70.47;31.50;;;16.10;99.90;;;;;;4966182;28;20206;-86
2023/05/23 03:32:36;;;;;;;76.03;33.20;;;16.00;99.90;;;;;;4966831;28;20648;-86
2023/05/23 03:35:01;;;;;;;66.27;33.57;;;16.00;99.90;;;;;;4965968;28;20508;-85
2023/05/23 03:37:27;;;;;;;59.83;33.00;;;15.90;99.90;;;;;;4970724;28;20199;-85
2023/05/23 03:39:53;;;;;;;80.80;34.03;;;;;;;;;;4962565;28;20195;-84
2023/05/23 03:42:19;;;;;;;74.87;32.03;;;;;;;;;;4968648;28;20187;-84
2023/05/23 03:44:45;;;;;;;80.47;35.83;;;;;;;;;;4982143;28;20499;-86
2023/05/23 03:47:10;;;;;;;82.57;33.07;;;15.90;99.90;;;;;;4971165;28;20431;-88
2023/05/23 03:49:36;;;;;;;74.23;33.80;;;;;;;;;;4965837;28;20466;-85
2023/05/23 03:52:03;;;;;;;80.03;32.67;;;16.00;99.90;;;;;;4980236;28;20211;-85
2023/05/23 03:54:28;;;;;;;81.30;32.73;;;15.90;99.90;;;;;;4982619;28;20457;-86
2023/05/23 03:56:54;;;;;;;69.67;32.50;;;;;;;;;;4966777;28;20942;-85
2023/05/23 03:59:20;;;;;;;73.03;34.13;;;;;;;;;;4980127;28;20176;-86
2023/05/23 04:01:46;;;;;;;73.93;32.73;;;;;;;;;;4981337;28;20429;-84
2023/05/23 04:04:12;;;;;;;73.10;32.50;;;;;;;;;;4968339;28;20477;-85
2023/05/23 04:06:38;;;;;;;74.17;34.20;;;16.10;99.90;;;;;;4968182;28;20454;-86
2023/05/23 04:09:05;;;;;;;63.97;31.30;;;;;;;;;;4966938;28;20522;-85
2023/05/23 04:11:31;;;;;;;65.90;31.73;;;;;;;;;;4966917;28;20437;-85
2023/05/23 04:13:57;;;;;;;72.03;32.23;;;;;;;;;;4980773;28;20431;-85
2023/05/23 04:16:24;;;;;;;67.60;35.67;;;;;;;;;;4966436;28;20455;-85
2023/05/23 04:18:50;;;;;;;62.40;31.13;;;16.10;99.90;;;;;;4979765;28;20446;-84
2023/05/23 04:21:16;;;;;;;63.10;33.10;;;;;;;;;;4963555;28;20955;-86
2023/05/23 04:23:42;;;;;;;66.47;33.77;;;;;;;;;;4985524;28;20441;-84
2023/05/23 04:26:09;;;;;;;65.63;33.50;;;;;;;;;;4981464;28;20959;-86
2023/05/23 04:28:36;;;;;;;61.63;31.40;;;;;;;;;;4987305;28;20799;-85
2023/05/23 04:31:02;;;;;;;68.40;31.87;;;;;;;;;;4964657;28;20431;-85
2023/05/23 04:33:29;;;;;;;61.80;29.77;;;16.20;99.90;;;;;;4972874;28;20470;-86
2023/05/23 04:35:56;;;;;;;65.87;33.83;;;;;;;;;;4988512;28;20461;-85
2023/05/23 04:38:23;;;;;;;64.27;29.60;;;16.30;99.90;;;;;;4984750;28;20436;-83
2023/05/23 04:40:51;;;;;;;71.50;33.33;;;16.30;99.90;;;;;;4969864;28;20804;-84
2023/05/23 04:43:16;;;;;;;55.50;28.67;;;16.30;99.90;;;;;;4967453;28;20435;-84
2023/05/23 04:45:42;;;;;;;77.17;34.73;;;16.30;99.90;;;;;;4971648;28;20469;-84
2023/05/23 04:48:09;;;;;;;69.20;32.30;;;;;;;;;;4972522;28;20562;-84
2023/05/23 04:50:36;;;;;;;66.43;29.13;;;;;;;;;;4973265;28;20457;-85
2023/05/23 04:53:02;;;;;;;64.63;30.37;;;16.50;99.90;;;;;;4978251;28;20411;-84
2023/05/23 04:55:28;;;;;;;73.93;33.93;;;;;;;;;;4969342;28;20446;-83
2023/05/23 04:57:53;;;;;;;64.07;30.63;;;16.60;99.90;;;;;;4984416;28;20220;-84
2023/05/23 05:00:19;;;;;;;70.87;32.10;;;16.80;99.90;;;;;;4985596;28;20807;-83
2023/05/23 05:02:44;;;;;;;66.30;33.53;;;16.70;99.90;;;;;;4969939;28;20188;-84
2023/05/23 05:05:10;;;;;;;63.73;32.30;;;17.00;99.90;;;;;;4987550;28;20635;-84
2023/05/23 05:07:36;;;;;;;63.80;33.00;;;;;;;;;;4987241;28;20191;-83
2023/05/23 05:10:02;;;;;;;65.63;32.40;;;18.10;99.90;;;;;;4990014;28;20202;-83
2023/05/23 05:12:28;;;;;;;56.70;30.60;;;;;;;;;;4988104;28;20789;-84
2023/05/23 05:14:54;;;;;;;49.37;29.23;;;;;;;;;;4972141;28;20557;-84
2023/05/23 05:17:20;;;;;;;59.03;28.93;;;;;;;;;;4981585;28;20419;-84
2023/05/23 05:19:46;;;;;;;57.90;29.03;;;;;;;;;;4986102;28;20434;-83
2023/05/23 05:22:12;;;;;;;51.10;30.20;;;;;;;;;;4985624;28;21463;-84
2023/05/23 05:24:39;;;;;;;62.33;29.70;;;;;;;;;;4979736;28;21090;-84
2023/05/23 05:27:05;;;;;;;53.87;29.80;;;;;;;;;;4981798;28;20448;-84
2023/05/23 05:29:32;;;;;;;62.97;31.50;;;;;;;;;;4979329;28;21036;-84
2023/05/23 05:32:00;;;;;;;60.07;30.63;;;;;;;;;;4968654;28;20507;-84
2023/05/23 05:34:26;;;;;;;60.17;30.80;;;;;;;;;;4985136;28;20486;-83
2023/05/23 05:36:54;;;;;;;62.93;31.70;;;;;;;;;;4985368;28;20454;-83
2023/05/23 05:39:23;;;;;;;55.80;29.50;;;19.70;99.90;;;;;;4968457;28;20448;-85
2023/05/23 05:41:49;;;;;;;55.70;29.97;;;;;;;;;;4977011;28;20435;-84
2023/05/23 05:44:14;;;;;;;52.53;28.33;;;;;;;;;;4975875;28;20442;-84
2023/05/23 05:46:40;;;;;;;47.60;28.50;;;;;;;;;;4982309;28;20520;-84
2023/05/23 05:49:06;;;;;;;50.50;25.80;;;;;;;;;;4982915;28;20531;-84
2023/05/23 05:51:32;;;;;;;54.50;29.03;;;;;;;;;;4983173;28;20484;-83
2023/05/23 05:53:58;;;;;;;51.00;26.37;;;18.80;99.90;;;;;;4980159;28;20438;-81
2023/05/23 05:56:23;;;;;;;50.93;27.50;;;18.70;99.90;;;;;;4983873;28;20804;-84
2023/05/23 05:58:49;;;;;;;45.03;26.43;;;18.60;99.90;;;;;;4982920;28;20281;-85
2023/05/23 06:01:14;;;;;;;53.07;26.47;;;17.90;99.90;;;;;;4968207;28;20183;-84
2023/05/23 06:03:40;;;;;;;48.10;25.20;;;17.90;99.90;;;;;;4977064;28;20175;-83
2023/05/23 06:06:07;;;;;;;48.03;28.80;;;18.00;99.90;;;;;;4962183;28;20227;-83
2023/05/23 06:08:33;;;;;;;48.07;25.30;;;17.90;99.90;;;;;;4985584;28;20238;-84
2023/05/23 06:10:58;;;;;;;40.10;22.00;;;18.10;99.90;;;;;;4986756;28;20823;-84
2023/05/23 06:13:24;;;;;;;39.87;22.13;;;17.90;99.90;;;;;;4983974;28;20236;-83
2023/05/23 06:15:49;;;;;;;41.00;23.57;;;17.60;99.90;;;;;;4970391;28;20219;-83
2023/05/23 06:18:15;;;;;;;38.33;22.10;;;;;;;;;;4987056;28;20179;-83
2023/05/23 06:20:41;;;;;;;34.70;17.97;;;17.70;99.90;;;;;;4966202;28;20183;-84
2023/05/23 06:23:07;;;;;;;24.47;13.73;;;17.10;99.90;;;;;;4979306;28;20534;-84
2023/05/23 06:25:33;;;;;;;31.40;17.27;;;16.70;99.90;;;;;;4961130;28;20211;-83
2023/05/23 06:27:59;;;;;;;31.17;16.97;;;16.60;99.90;;;;;;4986087;28;20439;-83
2023/05/23 06:30:25;;;;;;;28.83;17.50;;;16.30;99.90;;;;;;4986724;28;20204;-84
2023/05/23 06:32:50;;;;;;;37.17;18.80;;;16.20;99.90;;;;;;4991234;28;20529;-83
2023/05/23 06:35:16;;;;;;;27.87;14.60;;;16.10;99.90;;;;;;4991196;28;20565;-83
2023/05/23 06:37:44;;;;;;;41.17;21.37;;;16.10;99.90;;;;;;4987400;28;20184;-84
2023/05/23 06:40:11;;;;;;;40.97;20.67;;;16.00;99.90;;;;;;4985985;28;20466;-83
2023/05/23 06:42:36;;;;;;;38.40;19.80;;;16.00;99.90;;;;;;4984277;28;20537;-84
2023/05/23 06:45:02;;;;;;;37.20;20.40;;;16.20;99.90;;;;;;4989259;28;20498;-83
2023/05/23 06:47:27;;;;;;;35.37;19.73;;;16.20;99.90;;;;;;4980325;28;20241;-83
2023/05/23 06:49:53;;;;;;;37.03;21.57;;;16.10;99.90;;;;;;4974471;28;20301;-84
2023/05/23 06:52:18;;;;;;;38.43;21.00;;;16.10;99.90;;;;;;4970717;28;20194;-83
2023/05/23 06:54:44;;;;;;;37.30;21.93;;;16.00;99.90;;;;;;4986925;28;20231;-84
2023/05/23 06:57:09;;;;;;;38.60;21.83;;;16.00;99.90;;;;;;4985264;28;20194;-83
2023/05/23 06:59:35;;;;;;;38.47;22.77;;;15.90;99.90;;;;;;4990850;28;20214;-83
2023/05/23 07:02:00;;;;;;;32.63;18.33;;;15.90;99.90;;;;;;4989963;28;20322;-84
2023/05/23 07:04:26;;;;;;;37.47;20.67;;;16.10;99.90;;;;;;4989110;28;20214;-84
2023/05/23 07:06:52;;;;;;;39.80;22.43;;;16.10;99.90;;;;;;4994787;28;20268;-85
2023/05/23 07:09:18;;;;;;;31.43;19.83;;;16.30;99.90;;;;;;4989950;28;21022;-84
2023/05/23 07:11:43;;;;;;;34.60;19.93;;;16.20;99.90;;;;;;4984929;28;20568;-84
2023/05/23 07:14:09;;;;;;;35.47;20.13;;;16.30;99.90;;;;;;4982526;28;20221;-84
2023/05/23 07:16:34;;;;;;;37.17;20.23;;;16.30;99.90;;;;;;4974808;28;20187;-83
2023/05/23 07:19:02;;;;;;;33.63;17.93;;;16.30;99.90;;;;;;4972220;28;20191;-83
2023/05/23 07:21:27;;;;;;;39.10;18.90;;;;;;;;;;4974625;28;20506;-83
2023/05/23 07:23:53;;;;;;;34.00;19.27;;;;;;;;;;4988879;28;20434;-84
2023/05/23 07:26:19;;;;;;;38.10;20.50;;;16.90;99.90;;;;;;4987545;28;21023;-83
2023/05/23 07:28:45;;;;;;;28.73;17.47;;;16.80;99.90;;;;;;4996851;28;20442;-84
2023/05/23 07:31:12;;;;;;;32.33;19.20;;;16.70;99.90;;;;;;4998640;28;20191;-84
2023/05/23 07:33:38;;;;;;;36.47;20.40;;;;;;;;;;4992845;28;20436;-84
2023/05/23 07:36:03;;;;;;;39.43;18.33;;;16.40;99.90;;;;;;4987067;28;20955;-84
2023/05/23 07:38:29;;;;;;;32.33;18.73;;;16.80;99.90;;;;;;4989199;28;20461;-83
2023/05/23 07:40:55;;;;;;;28.03;14.00;;;16.60;99.90;;;;;;4971258;28;20214;-83
2023/05/23 07:43:21;;;;;;;30.13;17.63;;;16.20;99.90;;;;;;4987248;28;20226;-84
2023/05/23 07:45:46;;;;;;;31.77;16.70;;;16.20;99.90;;;;;;4988102;28;20183;-83
2023/05/23 07:48:12;;;;;;;27.20;16.70;;;16.40;99.90;;;;;;4994686;28;20433;-83
2023/05/23 07:50:39;;;;;;;35.80;18.27;;;16.30;99.90;;;;;;4993066;28;20234;-83
2023/05/23 07:53:05;;;;;;;29.37;15.90;;;16.60;99.90;;;;;;4986973;28;20183;-84
2023/05/23 07:55:30;;;;;;;27.27;15.07;;;16.60;99.90;;;;;;4980670;28;20455;-83
2023/05/23 07:57:56;;;;;;;29.93;15.40;;;16.60;99.90;;;;;;4964782;28;20319;-84
2023/05/23 08:00:21;;;;;;;32.97;16.43;;;16.40;99.90;;;;;;4978865;28;20180;-83
2023/05/23 08:02:47;;;;;;;24.57;16.43;;;16.50;99.90;;;;;;4987676;28;20180;-84
2023/05/23 08:05:12;;;;;;;22.90;13.67;;;16.60;99.90;;;;;;4985118;28;20560;-84
2023/05/23 08:07:38;;;;;;;23.73;14.30;;;;;;;;;;4987271;28;20661;-84
2023/05/23 08:10:05;;;;;;;25.87;15.47;;;16.50;99.90;;;;;;4970262;28;20191;-83
2023/05/23 08:12:31;;;;;;;26.47;15.40;;;;;;;;;;4983156;28;20431;-83
2023/05/23 08:14:56;;;;;;;23.07;14.57;;;16.90;99.90;;;;;;4983883;28;20462;-82
2023/05/23 08:17:22;;;;;;;24.07;13.77;;;;;;;;;;4964102;28;20445;-82
2023/05/23 08:19:48;;;;;;;23.03;13.70;;;17.10;99.90;;;;;;4979533;28;20251;-81
2023/05/23 08:22:13;;;;;;;27.07;15.57;;;17.10;99.90;;;;;;4991908;28;20474;-82
2023/05/23 08:24:39;;;;;;;21.70;13.17;;;16.90;99.90;;;;;;4993905;28;20261;-81
2023/05/23 08:27:06;;;;;;;27.93;13.80;;;;;;;;;;4969518;28;20191;-82
2023/05/23 08:29:33;;;;;;;21.53;11.97;;;17.20;99.90;;;;;;4966562;28;20211;-82
2023/05/23 08:31:59;;;;;;;22.20;13.13;;;17.20;99.90;;;;;;4970336;28;20442;-80
2023/05/23 08:34:25;;;;;;;21.53;12.77;;;;;;;;;;4981131;28;20816;-81
2023/05/23 08:36:51;;;;;;;21.13;12.40;;;17.30;99.90;;;;;;4982645;28;20184;-82
2023/05/23 08:39:17;;;;;;;21.00;12.07;;;17.30;99.90;;;;;;4962170;28;20896;-83
2023/05/23 08:41:43;;;;;;;23.07;13.13;;;17.50;99.90;;;;;;4979359;28;20765;-82
2023/05/23 08:44:08;;;;;;;23.70;12.20;;;17.50;99.90;;;;;;4981313;28;20462;-80
2023/05/23 08:46:39;;;;;;;21.30;11.77;;;17.60;99.90;;;;;;4979596;28;20326;-82
2023/05/23 08:49:06;;;;;;;19.83;12.13;;;17.90;99.90;;;;;;4980479;28;20225;-82
2023/05/23 08:51:36;;;;;;;18.73;11.43;;;17.90;99.90;;;;;;4982034;28;20437;-82
2023/05/23 08:54:03;;;;;;;18.50;11.47;;;18.10;99.90;;;;;;4983080;28;20434;-80
2023/05/23 08:56:29;;;;;;;21.77;12.00;;;;;;;;;;4983976;28;20438;-82
2023/05/23 08:58:55;;;;;;;18.70;12.17;;;;;;;;;;4984453;28;20438;-82
2023/05/23 09:01:22;;;;;;;20.77;10.70;;;17.90;99.90;;;;;;4980743;28;20909;-82
2023/05/23 09:03:49;;;;;;;15.03;9.47;;;;;;;;;;4964745;28;20540;-81
2023/05/23 09:06:17;;;;;;;16.63;11.33;;;;;;;;;;4981780;28;20509;-81
2023/05/23 09:08:45;;;;;;;18.30;10.40;;;18.60;99.90;;;;;;4983798;28;20445;-82
2023/05/23 09:11:11;;;;;;;17.20;11.17;;;18.80;99.90;;;;;;4963664;28;20431;-79
2023/05/23 09:13:39;;;;;;;15.20;8.63;;;;;;;;;;4966735;28;20975;-81
2023/05/23 09:16:06;;;;;;;16.50;10.63;;;19.10;99.90;;;;;;4968987;28;20542;-83
2023/05/23 09:18:39;;;;;;;15.60;9.57;;;19.40;99.90;;;;;;4982844;28;20775;-82
2023/05/23 09:21:05;;;;;;;17.93;10.00;;;;;;;;;;4979607;28;20765;-81
2023/05/23 09:23:31;;;;;;;13.17;9.17;;;;;;;;;;4980249;28;20934;-81
2023/05/23 09:26:04;;;;;;;17.47;10.73;;;19.80;99.90;;;;;;4960773;28;20508;-80
2023/05/23 09:28:34;;;;;;;13.67;8.80;;;19.40;99.90;;;;;;4968551;28;20776;-81
2023/05/23 09:31:01;;;;;;;14.97;9.50;;;19.30;99.90;;;;;;4970233;28;20475;-82
2023/05/23 09:33:55;;;;;;;15.80;10.30;;;18.90;99.90;;;;;;4978633;28;20456;-82
2023/05/23 09:36:20;;;;;;;17.60;7.70;;;19.10;99.90;;;;;;4978587;28;21127;-81
2023/05/23 09:38:47;;;;;;;10.77;7.70;;;19.10;99.90;;;;;;4981316;28;20980;-81
2023/05/23 09:41:13;;;;;;;13.27;8.73;;;;;;;;;;4979843;28;20179;-82
2023/05/23 09:43:53;;;;;;;15.00;10.07;;;19.30;99.90;;;;;;4982115;28;20426;-82
2023/05/23 09:46:20;;;;;;;13.43;8.63;;;19.50;99.90;;;;;;4984775;28;20502;-81
2023/05/23 09:48:51;;;;;;;12.33;8.80;;;19.40;99.90;;;;;;4972242;28;20968;-83
2023/05/23 09:51:22;;;;;;;12.43;8.10;;;19.10;99.90;;;;;;4983944;28;20563;-82
2023/05/23 09:53:48;;;;;;;16.90;8.30;;;19.10;99.90;;;;;;4967816;28;21087;-82
2023/05/23 09:56:16;;;;;;;11.20;7.83;;;18.90;99.90;;;;;;5010181;28;20433;-83
2023/05/23 09:58:46;;;;;;;13.97;7.97;;;19.30;99.90;;;;;;5010466;28;20856;-81
2023/05/23 10:01:12;;;;;;;11.37;7.80;;;19.50;99.90;;;;;;4982112;28;20420;-82
2023/05/23 10:03:48;;;;;;;13.27;8.43;;;20.00;99.90;;;;;;4981132;28;20489;-83
2023/05/23 10:06:25;;;;;;;9.60;7.80;;;20.30;99.90;;;;;;4984157;28;20509;-82
2023/05/23 10:08:58;;;;;;;16.83;8.00;;;20.40;99.90;;;;;;4985120;28;20428;-82
2023/05/23 10:11:32;;;;;;;9.93;6.57;;;20.50;99.90;;;;;;4962686;28;20890;-81
2023/05/23 10:14:00;;;;;;;9.20;6.13;;;20.40;99.90;;;;;;4985316;28;20466;-82
2023/05/23 10:16:46;;;;;;;9.00;5.87;;;20.10;99.90;;;;;;4982383;28;20451;-82
2023/05/23 10:19:43;;;;;;;11.40;6.27;;;20.10;99.90;;;;;;4983476;28;20470;-81
2023/05/23 10:22:11;;;;;;;9.90;6.87;;;20.10;99.90;;;;;;4979873;28;20514;-82
2023/05/23 10:24:37;;;;;;;10.37;6.87;;;;;;;;;;4980826;28;20462;-82
2023/05/23 10:27:02;;;;;;;9.20;7.03;;;19.80;99.90;;;;;;4984749;28;20801;-82
2023/05/23 10:29:29;;;;;;;9.57;6.30;;;19.70;99.90;;;;;;4981359;28;20473;-80
2023/05/23 10:31:56;;;;;;;6.53;5.57;;;19.60;99.90;;;;;;4983981;28;20183;-82
2023/05/23 10:34:49;;;;;;;8.10;6.43;;;18.60;99.90;;;;;;4980533;28;20491;-82
2023/05/23 10:37:25;;;;;;;9.10;6.00;;;18.30;99.90;;;;;;4982804;28;20807;-82
2023/05/23 10:40:06;;;;;;;17.47;7.50;;;18.50;99.90;;;;;;4986522;28;20441;-81
2023/05/23 10:42:50;;;;;;;7.73;5.33;;;18.60;99.90;;;;;;4959374;28;20851;-82
2023/05/23 10:45:20;;;;;;;9.90;6.37;;;18.60;99.90;;;;;;4976189;28;20486;-82
2023/05/23 10:47:47;;;;;;;7.63;5.70;;;19.10;99.90;;;;;;4981179;28;20437;-82
2023/05/23 10:50:15;;;;;;;11.07;5.90;;;19.50;99.90;;;;;;4972662;28;20465;-81
2023/05/23 10:52:42;;;;;;;7.87;5.87;;;;;;;;;;4986464;28;20887;-82
2023/05/23 10:55:16;;;;;;;10.47;6.83;;;20.10;99.90;;;;;;4984010;28;20446;-83
2023/05/23 10:57:42;;;;;;;10.40;6.23;;;;;;;;;;4970028;28;20961;-82
2023/05/23 11:00:14;;;;;;;8.50;6.23;;;20.30;99.90;;;;;;4966890;28;20859;-82
2023/05/23 11:02:59;;;;;;;8.57;6.47;;;20.30;99.90;;;;;;4983226;28;20482;-82
2023/05/23 11:05:30;;;;;;;8.43;6.40;;;20.20;99.90;;;;;;4982592;28;20528;-83
2023/05/23 11:08:09;;;;;;;9.70;6.57;;;20.60;99.90;;;;;;4983791;28;20526;-83
2023/05/23 11:10:51;;;;;;;10.23;6.57;;;20.50;99.90;;;;;;4979963;28;20829;-84
2023/05/23 11:13:20;;;;;;;9.20;6.57;;;21.80;99.90;;;;;;4982375;28;20451;-82
2023/05/23 11:15:46;;;;;;;8.07;6.37;;;;;;;;;;4972693;28;20507;-83
2023/05/23 11:18:29;;;;;;;9.00;6.13;;;21.30;99.90;;;;;;4963154;28;20423;-83
2023/05/23 11:20:58;;;;;;;8.80;6.50;;;20.90;99.90;;;;;;4967620;28;20434;-83
2023/05/23 11:23:40;;;;;;;8.43;6.20;;;20.80;99.90;;;;;;4981647;28;20472;-82
2023/05/23 11:26:29;;;;;;;8.63;5.77;;;20.40;99.90;;;;;;4980487;28;20859;-83
2023/05/23 11:28:56;;;;;;;7.13;5.13;;;20.10;99.90;;;;;;4978913;28;20803;-83
2023/05/23 11:31:23;;;;;;;9.03;5.27;;;19.90;99.90;;;;;;4980840;28;20432;-80
2023/05/23 11:33:50;;;;;;;7.77;5.33;;;19.30;99.90;;;;;;4979281;28;20434;-80
2023/05/23 11:36:16;;;;;;;13.30;6.10;;;19.30;99.90;;;;;;4980453;28;20461;-81
2023/05/23 11:38:42;;;;;;;7.27;5.80;;;19.80;99.90;;;;;;4961148;28;20494;-83
2023/05/23 11:41:08;;;;;;;8.17;5.73;;;;;;;;;;4978400;28;20702;-82
2023/05/23 11:43:33;;;;;;;9.67;5.80;;;20.40;99.90;;;;;;4978501;28;21005;-82
2023/05/23 11:46:07;;;;;;;7.90;6.13;;;20.80;99.90;;;;;;4977454;28;20459;-79
2023/05/23 11:48:32;;;;;;;8.90;6.17;;;20.80;99.90;;;;;;4985511;28;20175;-83
2023/05/23 11:50:58;;;;;;;10.10;5.60;;;;;;;;;;4968041;28;20772;-82
2023/05/23 11:53:26;;;;;;;7.13;5.47;;;21.00;99.90;;;;;;4977281;28;20192;-81
2023/05/23 11:55:59;;;;;;;7.17;5.20;;;21.00;99.90;;;;;;4956963;28;20506;-82
2023/05/23 11:58:28;;;;;;;6.83;5.07;;;21.10;99.90;;;;;;4975832;28;20957;-83
2023/05/23 12:01:02;;;;;;;8.17;5.20;;;21.10;99.90;;;;;;4958765;28;20493;-80
2023/05/23 12:03:27;;;;;;;5.63;4.70;;;20.80;99.90;;;;;;4977167;28;20729;-81
2023/05/23 12:05:57;;;;;;;6.43;4.50;;;20.80;99.90;;;;;;4979332;28;20493;-82
2023/05/23 12:08:24;;;;;;;6.27;5.00;;;20.00;99.90;;;;;;4984735;28;20184;-83
2023/05/23 12:11:00;;;;;;;8.57;5.47;;;20.50;99.90;;;;;;4976891;28;20878;-82
2023/05/23 12:13:28;;;;;;;6.33;4.40;;;20.40;99.90;;;;;;4977745;28;20533;-82
2023/05/23 12:15:59;;;;;;;6.73;4.53;;;19.50;99.90;;;;;;4975310;28;20573;-83
2023/05/23 12:18:28;;;;;;;8.20;5.57;;;19.40;99.90;;;;;;4975036;28;20506;-82
2023/05/23 12:20:54;;;;;;;5.60;4.90;;;19.40;99.90;;;;;;4975884;28;20446;-82
2023/05/23 12:23:23;;;;;;;5.67;4.30;;;19.40;99.90;;;;;;4976516;28;20445;-83
2023/05/23 12:25:53;;;;;;;7.73;4.93;;;19.10;99.90;;;;;;4975115;28;20207;-83
2023/05/23 12:28:20;;;;;;;9.50;4.57;;;19.20;99.90;;;;;;4975386;28;20445;-82
2023/05/23 12:30:46;;;;;;;6.50;4.73;;;19.30;99.90;;;;;;4976866;28;20854;-83
2023/05/23 12:33:12;;;;;;;6.67;5.70;;;18.80;99.90;;;;;;4961041;28;20427;-82
2023/05/23 12:35:41;;;;;;;5.30;4.50;;;18.90;99.90;;;;;;4966089;28;20292;-83
2023/05/23 12:38:07;;;;;;;7.40;4.40;;;19.20;99.90;;;;;;4975564;28;20438;-81
2023/05/23 12:40:34;;;;;;;4.97;3.33;;;19.50;99.90;;;;;;4975455;28;20529;-80
2023/05/23 12:43:00;;;;;;;5.77;4.00;;;19.40;99.90;;;;;;4976719;28;20435;-81
2023/05/23 12:45:35;;;;;;;4.03;3.60;;;19.80;99.90;;;;;;4973953;28;21037;-81
2023/05/23 12:48:10;;;;;;;6.00;4.80;;;20.30;99.90;;;;;;4957286;28;20183;-82
2023/05/23 12:50:35;;;;;;;8.47;4.93;;;20.10;99.90;;;;;;4977067;28;20477;-82
2023/05/23 12:53:01;;;;;;;5.63;4.20;;;;;;;;;;4975278;28;20450;-82
2023/05/23 12:55:27;;;;;;;6.23;4.43;;;;;;;;;;4977749;28;20752;-82
2023/05/23 12:57:53;;;;;;;3.97;3.37;;;20.90;99.90;;;;;;4975529;28;20433;-82
2023/05/23 13:00:20;;;;;;;7.67;4.77;;;20.70;99.90;;;;;;4956967;28;20596;-81
2023/05/23 13:02:46;;;;;;;5.63;4.17;;;;;;;;;;4981517;28;20785;-81